sensor_id;sensor_type;location;lat;lon;timestamp;pressure;altitude;pressure_sealevel;temperature;humidity
77043;BME280;65975;53.936;27.540;2023-01-01T00:00:12;98767.06;;;7.15;83.69
77043;BME280;65975;53.936;27.540;2023-01-01T00:02:37;98725.66;;;6.66;84.24
77043;BME280;65975;53.936;27.540;2023-01-01T00:05:04;98766.47;;;7.02;83.77
77043;BME280;65975;53.936;27.540;2023-01-01T00:07:31;98759.41;;;7.07;83.50
77043;BME280;65975;53.936;27.540;2023-01-01T00:09:57;98762.88;;;7.08;83.95
77043;BME280;65975;53.936;27.540;2023-01-01T00:12:41;98774.81;;;7.18;83.23
77043;BME280;65975;53.936;27.540;2023-01-01T00:15:06;98776.59;;;7.14;83.75
77043;BME280;65975;53.936;27.540;2023-01-01T00:17:32;98765.91;;;7.27;83.57
77043;BME280;65975;53.936;27.540;2023-01-01T00:19:58;98753.84;;;7.24;83.33
77043;BME280;65975;53.936;27.540;2023-01-01T00:22:23;98744.75;;;7.05;83.50
77043;BME280;65975;53.936;27.540;2023-01-01T00:24:50;98761.63;;;7.26;83.59
77043;BME280;65975;53.936;27.540;2023-01-01T00:27:15;98729.84;;;7.10;83.12
77043;BME280;65975;53.936;27.540;2023-01-01T00:29:41;98732.88;;;7.29;82.13
77043;BME280;65975;53.936;27.540;2023-01-01T00:32:06;98743.19;;;7.33;83.53
77043;BME280;65975;53.936;27.540;2023-01-01T00:34:32;98741.69;;;7.25;83.39
77043;BME280;65975;53.936;27.540;2023-01-01T00:36:57;98732.47;;;7.10;83.46
77043;BME280;65975;53.936;27.540;2023-01-01T00:39:23;98739.22;;;7.18;84.23
77043;BME280;65975;53.936;27.540;2023-01-01T00:41:48;98726.22;;;7.17;83.92
77043;BME280;65975;53.936;27.540;2023-01-01T00:44:15;98719.44;;;7.10;83.85
77043;BME280;65975;53.936;27.540;2023-01-01T00:46:42;98727.66;;;7.30;83.41
77043;BME280;65975;53.936;27.540;2023-01-01T00:49:09;98712.94;;;7.28;82.97
77043;BME280;65975;53.936;27.540;2023-01-01T00:51:35;98714.22;;;7.11;83.73
77043;BME280;65975;53.936;27.540;2023-01-01T00:54:01;98733.88;;;7.23;83.92
77043;BME280;65975;53.936;27.540;2023-01-01T00:56:26;98563.56;;;6.25;84.06
77043;BME280;65975;53.936;27.540;2023-01-01T00:58:52;98712.63;;;7.40;83.09
77043;BME280;65975;53.936;27.540;2023-01-01T01:01:17;98700.59;;;7.36;83.36
77043;BME280;65975;53.936;27.540;2023-01-01T01:03:43;98678.78;;;7.40;82.98
77043;BME280;65975;53.936;27.540;2023-01-01T01:06:10;98697.69;;;7.48;83.47
77043;BME280;65975;53.936;27.540;2023-01-01T01:08:39;98697.63;;;7.51;83.70
77043;BME280;65975;53.936;27.540;2023-01-01T01:11:18;98671.94;;;7.36;83.38
77043;BME280;65975;53.936;27.540;2023-01-01T01:13:47;98691.72;;;7.44;84.02
77043;BME280;65975;53.936;27.540;2023-01-01T01:16:19;98696.81;;;7.47;83.27
77043;BME280;65975;53.936;27.540;2023-01-01T01:18:46;98693.47;;;7.44;83.66
77043;BME280;65975;53.936;27.540;2023-01-01T01:21:15;98695.06;;;7.48;82.99
77043;BME280;65975;53.936;27.540;2023-01-01T01:23:41;98660.75;;;7.32;83.30
77043;BME280;65975;53.936;27.540;2023-01-01T01:26:13;98657.56;;;7.21;83.72
77043;BME280;65975;53.936;27.540;2023-01-01T01:28:40;98656.81;;;7.16;83.36
77043;BME280;65975;53.936;27.540;2023-01-01T01:31:05;98664.31;;;7.28;83.71
77043;BME280;65975;53.936;27.540;2023-01-01T01:33:31;98671.78;;;7.42;82.92
77043;BME280;65975;53.936;27.540;2023-01-01T01:35:56;98674.34;;;7.45;83.85
77043;BME280;65975;53.936;27.540;2023-01-01T01:38:23;98688.84;;;7.53;83.18
77043;BME280;65975;53.936;27.540;2023-01-01T01:40:49;98680.19;;;7.19;83.81
77043;BME280;65975;53.936;27.540;2023-01-01T01:46:09;98692.84;;;7.33;84.48
77043;BME280;65975;53.936;27.540;2023-01-01T01:48:38;98673.66;;;7.01;84.38
77043;BME280;65975;53.936;27.540;2023-01-01T01:51:05;98699.91;;;7.28;83.41
77043;BME280;65975;53.936;27.540;2023-01-01T01:53:37;98691.16;;;7.32;83.24
77043;BME280;65975;53.936;27.540;2023-01-01T01:56:10;98701.34;;;7.39;83.44
77043;BME280;65975;53.936;27.540;2023-01-01T01:58:37;98713.63;;;7.36;83.36
77043;BME280;65975;53.936;27.540;2023-01-01T02:01:03;98700.66;;;7.33;83.60
77043;BME280;65975;53.936;27.540;2023-01-01T02:03:52;98697.13;;;7.35;83.29
77043;BME280;65975;53.936;27.540;2023-01-01T02:06:22;98670.59;;;7.19;83.45
77043;BME280;65975;53.936;27.540;2023-01-01T02:08:48;98695.09;;;7.46;83.22
77043;BME280;65975;53.936;27.540;2023-01-01T02:11:15;98664.81;;;7.44;82.89
77043;BME280;65975;53.936;27.540;2023-01-01T02:13:40;98665.44;;;7.52;83.24
77043;BME280;65975;53.936;27.540;2023-01-01T02:16:19;98669.06;;;7.46;82.98
77043;BME280;65975;53.936;27.540;2023-01-01T02:21:33;98662.44;;;7.33;83.46
77043;BME280;65975;53.936;27.540;2023-01-01T02:27:20;98667.38;;;7.45;83.16
77043;BME280;65975;53.936;27.540;2023-01-01T02:30:04;98678.56;;;7.49;83.22
77043;BME280;65975;53.936;27.540;2023-01-01T02:32:34;98670.66;;;7.52;83.40
77043;BME280;65975;53.936;27.540;2023-01-01T02:35:05;98660.63;;;7.37;84.63
77043;BME280;65975;53.936;27.540;2023-01-01T02:38:00;98643.91;;;7.13;84.63
77043;BME280;65975;53.936;27.540;2023-01-01T02:40:27;98649.03;;;7.14;84.77
77043;BME280;65975;53.936;27.540;2023-01-01T02:42:54;98640.63;;;7.05;85.24
77043;BME280;65975;53.936;27.540;2023-01-01T02:45:20;98677.97;;;7.38;85.85
77043;BME280;65975;53.936;27.540;2023-01-01T02:47:46;98653.38;;;7.14;85.70
77043;BME280;65975;53.936;27.540;2023-01-01T02:50:20;98650.44;;;7.28;85.45
77043;BME280;65975;53.936;27.540;2023-01-01T02:58:34;98648.72;;;7.27;84.09
77043;BME280;65975;53.936;27.540;2023-01-01T03:01:39;98673.53;;;7.41;84.44
77043;BME280;65975;53.936;27.540;2023-01-01T03:04:25;98684.41;;;7.23;85.04
77043;BME280;65975;53.936;27.540;2023-01-01T03:07:02;98659.00;;;7.33;85.35
77043;BME280;65975;53.936;27.540;2023-01-01T03:10:00;98686.34;;;7.50;84.93
77043;BME280;65975;53.936;27.540;2023-01-01T03:12:36;98663.28;;;7.35;85.20
77043;BME280;65975;53.936;27.540;2023-01-01T03:18:04;98662.94;;;7.49;84.52
77043;BME280;65975;53.936;27.540;2023-01-01T03:20:32;98648.03;;;7.54;84.46
77043;BME280;65975;53.936;27.540;2023-01-01T03:23:06;98603.19;;;7.09;84.39
77043;BME280;65975;53.936;27.540;2023-01-01T03:25:38;98659.75;;;7.38;84.62
77043;BME280;65975;53.936;27.540;2023-01-01T03:28:13;98635.69;;;7.28;85.16
77043;BME280;65975;53.936;27.540;2023-01-01T03:30:43;98674.34;;;7.45;84.37
77043;BME280;65975;53.936;27.540;2023-01-01T03:33:22;98657.09;;;7.39;84.60
77043;BME280;65975;53.936;27.540;2023-01-01T03:38:41;98650.47;;;7.26;83.95
77043;BME280;65975;53.936;27.540;2023-01-01T03:41:21;98675.78;;;7.55;84.14
77043;BME280;65975;53.936;27.540;2023-01-01T03:46:37;98661.22;;;7.48;84.00
77043;BME280;65975;53.936;27.540;2023-01-01T03:49:07;98669.66;;;7.57;83.86
77043;BME280;65975;53.936;27.540;2023-01-01T03:55:03;98630.56;;;7.25;84.92
77043;BME280;65975;53.936;27.540;2023-01-01T03:57:43;98640.81;;;7.31;85.42
77043;BME280;65975;53.936;27.540;2023-01-01T04:00:12;98619.09;;;7.32;85.27
77043;BME280;65975;53.936;27.540;2023-01-01T04:05:19;98628.34;;;7.44;84.80
77043;BME280;65975;53.936;27.540;2023-01-01T04:07:46;98622.09;;;7.49;84.70
77043;BME280;65975;53.936;27.540;2023-01-01T04:10:13;98618.72;;;7.46;85.10
77043;BME280;65975;53.936;27.540;2023-01-01T04:12:47;98611.69;;;7.49;84.43
77043;BME280;65975;53.936;27.540;2023-01-01T04:15:14;98587.44;;;7.13;84.83
77043;BME280;65975;53.936;27.540;2023-01-01T04:17:41;98580.84;;;7.33;84.94
77043;BME280;65975;53.936;27.540;2023-01-01T04:20:07;98578.59;;;7.53;84.48
77043;BME280;65975;53.936;27.540;2023-01-01T04:22:33;98571.06;;;7.42;84.18
77043;BME280;65975;53.936;27.540;2023-01-01T04:24:59;98629.03;;;7.83;84.08
77043;BME280;65975;53.936;27.540;2023-01-01T04:27:24;98604.25;;;7.67;83.89
77043;BME280;65975;53.936;27.540;2023-01-01T04:29:57;98617.56;;;7.88;84.36
77043;BME280;65975;53.936;27.540;2023-01-01T04:32:22;98616.88;;;7.82;85.06
77043;BME280;65975;53.936;27.540;2023-01-01T04:34:48;98600.28;;;7.84;83.94
77043;BME280;65975;53.936;27.540;2023-01-01T04:37:13;98578.09;;;7.71;84.40
77043;BME280;65975;53.936;27.540;2023-01-01T04:39:39;98576.38;;;7.70;84.34
77043;BME280;65975;53.936;27.540;2023-01-01T04:42:05;98581.31;;;7.79;84.25
77043;BME280;65975;53.936;27.540;2023-01-01T04:44:30;98576.38;;;7.70;84.39
77043;BME280;65975;53.936;27.540;2023-01-01T04:46:56;98592.53;;;7.83;84.84
77043;BME280;65975;53.936;27.540;2023-01-01T04:49:21;98582.50;;;7.69;84.72
77043;BME280;65975;53.936;27.540;2023-01-01T04:51:47;98608.84;;;7.89;84.22
77043;BME280;65975;53.936;27.540;2023-01-01T04:54:13;98575.16;;;7.83;84.16
77043;BME280;65975;53.936;27.540;2023-01-01T04:56:38;98598.22;;;7.97;84.34
77043;BME280;65975;53.936;27.540;2023-01-01T04:59:04;98621.56;;;8.00;84.68
77043;BME280;65975;53.936;27.540;2023-01-01T05:01:30;98616.34;;;8.00;84.64
77043;BME280;65975;53.936;27.540;2023-01-01T05:03:56;98583.19;;;8.05;83.43
77043;BME280;65975;53.936;27.540;2023-01-01T05:06:22;98583.28;;;8.02;84.11
77043;BME280;65975;53.936;27.540;2023-01-01T05:08:49;98618.38;;;8.20;84.25
77043;BME280;65975;53.936;27.540;2023-01-01T05:11:20;98607.78;;;8.26;83.45
77043;BME280;65975;53.936;27.540;2023-01-01T05:13:47;98611.97;;;8.31;83.04
77043;BME280;65975;53.936;27.540;2023-01-01T05:16:18;98571.81;;;8.08;83.53
77043;BME280;65975;53.936;27.540;2023-01-01T05:18:44;98579.19;;;8.23;83.21
77043;BME280;65975;53.936;27.540;2023-01-01T05:21:24;98586.22;;;8.19;83.27
77043;BME280;65975;53.936;27.540;2023-01-01T05:23:57;98591.00;;;8.36;82.99
77043;BME280;65975;53.936;27.540;2023-01-01T05:26:25;98579.13;;;8.24;83.16
77043;BME280;65975;53.936;27.540;2023-01-01T05:28:52;98563.41;;;8.27;83.02
77043;BME280;65975;53.936;27.540;2023-01-01T05:31:21;98600.28;;;8.45;83.69
77043;BME280;65975;53.936;27.540;2023-01-01T05:33:48;98598.59;;;8.70;82.91
77043;BME280;65975;53.936;27.540;2023-01-01T05:36:16;98603.41;;;8.56;82.88
77043;BME280;65975;53.936;27.540;2023-01-01T05:38:42;98597.28;;;8.57;83.36
77043;BME280;65975;53.936;27.540;2023-01-01T05:41:09;98604.91;;;8.63;83.13
77043;BME280;65975;53.936;27.540;2023-01-01T05:43:36;98568.41;;;8.35;83.12
77043;BME280;65975;53.936;27.540;2023-01-01T05:46:04;98589.88;;;8.71;83.04
77043;BME280;65975;53.936;27.540;2023-01-01T05:48:31;98558.34;;;8.51;82.26
77043;BME280;65975;53.936;27.540;2023-01-01T05:51:07;98563.31;;;8.58;82.73
77043;BME280;65975;53.936;27.540;2023-01-01T05:53:33;98582.28;;;8.63;82.78
77043;BME280;65975;53.936;27.540;2023-01-01T05:56:01;98588.97;;;8.72;82.78
77043;BME280;65975;53.936;27.540;2023-01-01T05:58:28;98602.03;;;8.44;82.96
77043;BME280;65975;53.936;27.540;2023-01-01T06:00:54;98521.03;;;8.19;83.01
77043;BME280;65975;53.936;27.540;2023-01-01T06:03:20;98543.88;;;8.40;82.46
77043;BME280;65975;53.936;27.540;2023-01-01T06:05:46;98589.22;;;8.64;82.68
77043;BME280;65975;53.936;27.540;2023-01-01T06:08:12;98563.66;;;8.48;82.74
77043;BME280;65975;53.936;27.540;2023-01-01T06:10:37;98565.66;;;8.39;82.70
77043;BME280;65975;53.936;27.540;2023-01-01T06:13:03;98580.09;;;8.50;82.92
77043;BME280;65975;53.936;27.540;2023-01-01T06:15:29;98581.97;;;8.46;82.93
77043;BME280;65975;53.936;27.540;2023-01-01T06:17:54;98565.28;;;8.22;83.74
77043;BME280;65975;53.936;27.540;2023-01-01T06:20:20;98570.69;;;8.16;83.52
77043;BME280;65975;53.936;27.540;2023-01-01T06:22:45;98574.94;;;8.19;83.19
77043;BME280;65975;53.936;27.540;2023-01-01T06:25:11;98598.38;;;8.20;83.15
77043;BME280;65975;53.936;27.540;2023-01-01T06:27:37;98600.31;;;8.14;83.25
77043;BME280;65975;53.936;27.540;2023-01-01T06:30:04;98618.63;;;8.11;83.63
77043;BME280;65975;53.936;27.540;2023-01-01T06:32:30;98552.41;;;7.88;83.36
77043;BME280;65975;53.936;27.540;2023-01-01T06:34:56;98579.69;;;8.06;83.16
77043;BME280;65975;53.936;27.540;2023-01-01T06:37:21;98587.28;;;8.14;83.51
77043;BME280;65975;53.936;27.540;2023-01-01T06:39:47;98596.09;;;8.10;83.92
77043;BME280;65975;53.936;27.540;2023-01-01T06:42:12;98601.34;;;8.08;83.61
77043;BME280;65975;53.936;27.540;2023-01-01T06:44:38;98565.31;;;7.91;83.57
77043;BME280;65975;53.936;27.540;2023-01-01T06:47:03;98584.31;;;7.96;84.09
77043;BME280;65975;53.936;27.540;2023-01-01T06:49:29;98585.97;;;7.99;83.56
77043;BME280;65975;53.936;27.540;2023-01-01T06:51:54;98575.06;;;7.85;83.54
77043;BME280;65975;53.936;27.540;2023-01-01T06:54:20;98614.81;;;7.93;83.32
77043;BME280;65975;53.936;27.540;2023-01-01T06:56:45;98602.16;;;7.79;83.51
77043;BME280;65975;53.936;27.540;2023-01-01T06:59:11;98600.44;;;7.78;83.83
77043;BME280;65975;53.936;27.540;2023-01-01T07:01:37;98623.47;;;7.95;83.42
77043;BME280;65975;53.936;27.540;2023-01-01T07:04:09;98630.72;;;7.84;84.00
77043;BME280;65975;53.936;27.540;2023-01-01T07:06:36;98606.63;;;7.76;82.83
77043;BME280;65975;53.936;27.540;2023-01-01T07:09:02;98644.50;;;7.89;83.94
77043;BME280;65975;53.936;27.540;2023-01-01T07:11:29;98604.09;;;7.73;84.45
77043;BME280;65975;53.936;27.540;2023-01-01T07:13:54;98634.81;;;7.92;83.87
77043;BME280;65975;53.936;27.540;2023-01-01T07:16:20;98622.28;;;7.74;83.60
77043;BME280;65975;53.936;27.540;2023-01-01T07:18:46;98648.66;;;7.94;83.42
77043;BME280;65975;53.936;27.540;2023-01-01T07:21:29;98640.63;;;8.02;83.40
77043;BME280;65975;53.936;27.540;2023-01-01T07:24:00;98628.56;;;7.98;83.13
77043;BME280;65975;53.936;27.540;2023-01-01T07:26:28;98616.53;;;7.94;83.08
77043;BME280;65975;53.936;27.540;2023-01-01T07:28:53;98620.03;;;7.93;83.50
77043;BME280;65975;53.936;27.540;2023-01-01T07:31:19;98651.94;;;8.02;83.18
77043;BME280;65975;53.936;27.540;2023-01-01T07:33:45;98630.84;;;7.79;83.59
77043;BME280;65975;53.936;27.540;2023-01-01T07:36:10;98621.09;;;7.86;83.05
77043;BME280;65975;53.936;27.540;2023-01-01T07:38:36;98654.81;;;7.92;83.08
77043;BME280;65975;53.936;27.540;2023-01-01T07:41:01;98667.63;;;7.99;83.01
77043;BME280;65975;53.936;27.540;2023-01-01T07:43:27;98610.66;;;7.55;83.63
77043;BME280;65975;53.936;27.540;2023-01-01T07:45:52;98680.81;;;7.95;83.45
77043;BME280;65975;53.936;27.540;2023-01-01T07:48:18;98686.78;;;7.98;83.43
77043;BME280;65975;53.936;27.540;2023-01-01T07:50:43;98615.47;;;7.70;82.71
77043;BME280;65975;53.936;27.540;2023-01-01T07:53:09;98676.81;;;8.13;83.00
77043;BME280;65975;53.936;27.540;2023-01-01T07:55:34;98636.34;;;7.99;82.72
77043;BME280;65975;53.936;27.540;2023-01-01T07:58:00;98664.16;;;8.31;81.89
77043;BME280;65975;53.936;27.540;2023-01-01T08:00:26;98676.34;;;8.31;82.72
77043;BME280;65975;53.936;27.540;2023-01-01T08:02:51;98639.09;;;8.24;82.12
77043;BME280;65975;53.936;27.540;2023-01-01T08:05:18;98653.69;;;8.33;82.48
77043;BME280;65975;53.936;27.540;2023-01-01T08:07:48;98643.84;;;8.43;81.53
77043;BME280;65975;53.936;27.540;2023-01-01T08:10:15;98657.41;;;8.54;81.48
77043;BME280;65975;53.936;27.540;2023-01-01T08:12:41;98664.19;;;8.59;81.17
77043;BME280;65975;53.936;27.540;2023-01-01T08:15:08;98666.88;;;8.56;81.84
77043;BME280;65975;53.936;27.540;2023-01-01T08:17:34;98640.00;;;8.54;81.19
77043;BME280;65975;53.936;27.540;2023-01-01T08:19:59;98618.53;;;8.45;80.64
77043;BME280;65975;53.936;27.540;2023-01-01T08:22:25;98640.13;;;8.77;80.08
77043;BME280;65975;53.936;27.540;2023-01-01T08:24:50;98670.53;;;8.80;80.19
77043;BME280;65975;53.936;27.540;2023-01-01T08:27:16;98674.75;;;8.84;80.63
77043;BME280;65975;53.936;27.540;2023-01-01T08:29:43;98674.19;;;8.74;81.18
77043;BME280;65975;53.936;27.540;2023-01-01T08:32:09;98634.59;;;8.60;80.37
77043;BME280;65975;53.936;27.540;2023-01-01T08:34:34;98675.06;;;9.01;80.16
77043;BME280;65975;53.936;27.540;2023-01-01T08:37:00;98671.06;;;8.90;80.34
77043;BME280;65975;53.936;27.540;2023-01-01T08:39:25;98683.34;;;8.88;80.22
77043;BME280;65975;53.936;27.540;2023-01-01T08:41:51;98691.91;;;8.91;80.22
77043;BME280;65975;53.936;27.540;2023-01-01T08:44:17;98687.91;;;8.81;80.61
77043;BME280;65975;53.936;27.540;2023-01-01T08:46:42;98659.66;;;8.66;80.58
77043;BME280;65975;53.936;27.540;2023-01-01T08:49:08;98664.81;;;8.67;80.59
77043;BME280;65975;53.936;27.540;2023-01-01T08:51:33;98685.34;;;8.79;80.41
77043;BME280;65975;53.936;27.540;2023-01-01T08:53:59;98632.78;;;8.62;79.79
77043;BME280;65975;53.936;27.540;2023-01-01T08:56:24;98574.09;;;8.18;79.76
77043;BME280;65975;53.936;27.540;2023-01-01T08:58:50;98644.88;;;8.65;80.33
77043;BME280;65975;53.936;27.540;2023-01-01T09:01:15;98678.06;;;8.89;80.21
77043;BME280;65975;53.936;27.540;2023-01-01T09:03:41;98704.25;;;9.14;79.60
77043;BME280;65975;53.936;27.540;2023-01-01T09:06:06;98675.47;;;9.15;78.92
77043;BME280;65975;53.936;27.540;2023-01-01T09:08:32;98639.78;;;8.88;78.99
77043;BME280;65975;53.936;27.540;2023-01-01T09:10:59;98683.69;;;9.31;79.02
77043;BME280;65975;53.936;27.540;2023-01-01T09:13:25;98687.78;;;9.12;79.03
77043;BME280;65975;53.936;27.540;2023-01-01T09:15:50;98635.88;;;9.01;78.80
77043;BME280;65975;53.936;27.540;2023-01-01T09:18:16;98687.94;;;9.34;78.65
77043;BME280;65975;53.936;27.540;2023-01-01T09:20:42;98682.22;;;9.22;79.13
77043;BME280;65975;53.936;27.540;2023-01-01T09:23:09;98680.81;;;9.39;78.57
77043;BME280;65975;53.936;27.540;2023-01-01T09:25:35;98673.72;;;9.42;78.35
77043;BME280;65975;53.936;27.540;2023-01-01T09:28:03;98681.59;;;9.41;78.00
77043;BME280;65975;53.936;27.540;2023-01-01T09:30:29;98662.38;;;9.43;78.13
77043;BME280;65975;53.936;27.540;2023-01-01T09:32:54;98672.97;;;9.65;77.68
77043;BME280;65975;53.936;27.540;2023-01-01T09:35:20;98666.28;;;9.81;76.98
77043;BME280;65975;53.936;27.540;2023-01-01T09:37:45;98681.63;;;10.17;75.79
77043;BME280;65975;53.936;27.540;2023-01-01T09:40:27;98668.50;;;10.87;73.47
77043;BME280;65975;53.936;27.540;2023-01-01T09:45:27;98670.91;;;10.46;74.35
77043;BME280;65975;53.936;27.540;2023-01-01T09:48:08;98678.78;;;10.69;73.39
77043;BME280;65975;53.936;27.540;2023-01-01T09:50:44;98662.25;;;11.33;70.80
77043;BME280;65975;53.936;27.540;2023-01-01T09:53:35;98682.50;;;12.12;68.66
77043;BME280;65975;53.936;27.540;2023-01-01T09:56:03;98686.09;;;12.29;68.08
77043;BME280;65975;53.936;27.540;2023-01-01T09:58:34;98697.97;;;12.75;66.26
77043;BME280;65975;53.936;27.540;2023-01-01T10:06:43;98692.06;;;11.08;71.53
77043;BME280;65975;53.936;27.540;2023-01-01T10:09:29;98684.53;;;10.77;72.33
77043;BME280;65975;53.936;27.540;2023-01-01T10:12:24;98709.81;;;11.02;72.62
77043;BME280;65975;53.936;27.540;2023-01-01T10:15:02;98682.72;;;10.79;72.46
77043;BME280;65975;53.936;27.540;2023-01-01T10:17:37;98709.78;;;11.45;70.63
77043;BME280;65975;53.936;27.540;2023-01-01T10:21:00;98697.19;;;11.33;71.16
77043;BME280;65975;53.936;27.540;2023-01-01T10:23:03;98698.38;;;11.03;72.00
77043;BME280;65975;53.936;27.540;2023-01-01T10:25:38;98714.88;;;11.48;70.72
77043;BME280;65975;53.936;27.540;2023-01-01T10:28:26;98708.09;;;11.22;71.69
77043;BME280;65975;53.936;27.540;2023-01-01T10:31:50;98702.22;;;11.38;71.21
77043;BME280;65975;53.936;27.540;2023-01-01T10:33:51;98698.91;;;11.34;70.80
77043;BME280;65975;53.936;27.540;2023-01-01T10:36:18;98704.00;;;11.37;71.42
77043;BME280;65975;53.936;27.540;2023-01-01T10:38:46;98705.66;;;11.18;72.05
77043;BME280;65975;53.936;27.540;2023-01-01T10:41:13;98682.94;;;11.18;72.01
77043;BME280;65975;53.936;27.540;2023-01-01T10:43:40;98706.78;;;11.54;71.13
77043;BME280;65975;53.936;27.540;2023-01-01T10:46:06;98704.63;;;11.64;70.14
77043;BME280;65975;53.936;27.540;2023-01-01T10:48:35;98688.75;;;11.47;71.06
77043;BME280;65975;53.936;27.540;2023-01-01T10:51:03;98693.81;;;11.51;70.69
77043;BME280;65975;53.936;27.540;2023-01-01T10:53:41;98703.94;;;11.39;70.79
77043;BME280;65975;53.936;27.540;2023-01-01T11:01:09;98710.91;;;11.40;71.36
77043;BME280;65975;53.936;27.540;2023-01-01T11:03:35;98708.34;;;11.38;71.22
77043;BME280;65975;53.936;27.540;2023-01-01T11:06:15;98722.94;;;11.44;70.92
77043;BME280;65975;53.936;27.540;2023-01-01T11:08:51;98715.19;;;11.41;70.65
77043;BME280;65975;53.936;27.540;2023-01-01T11:11:41;98717.22;;;11.56;70.58
77043;BME280;65975;53.936;27.540;2023-01-01T11:14:21;98710.91;;;12.22;68.06
77043;BME280;65975;53.936;27.540;2023-01-01T11:16:50;98704.88;;;12.00;67.77
77043;BME280;65975;53.936;27.540;2023-01-01T11:19:33;98738.00;;;12.02;68.14
77043;BME280;65975;53.936;27.540;2023-01-01T11:22:01;98729.19;;;12.44;66.97
77043;BME280;65975;53.936;27.540;2023-01-01T11:24:29;98717.22;;;12.76;66.25
77043;BME280;65975;53.936;27.540;2023-01-01T11:27:22;98663.06;;;13.09;64.15
77043;BME280;65975;53.936;27.540;2023-01-01T11:29:48;98718.44;;;14.13;61.37
77043;BME280;65975;53.936;27.540;2023-01-01T11:32:20;98722.19;;;13.55;63.07
77043;BME280;65975;53.936;27.540;2023-01-01T11:34:53;98723.75;;;12.86;64.98
77043;BME280;65975;53.936;27.540;2023-01-01T11:37:28;98729.00;;;12.67;65.39
77043;BME280;65975;53.936;27.540;2023-01-01T11:39:56;98718.78;;;12.80;65.44
77043;BME280;65975;53.936;27.540;2023-01-01T11:42:25;98722.53;;;12.93;64.73
77043;BME280;65975;53.936;27.540;2023-01-01T11:45:14;98712.09;;;12.73;65.09
77043;BME280;65975;53.936;27.540;2023-01-01T11:47:43;98715.41;;;13.15;64.46
77043;BME280;65975;53.936;27.540;2023-01-01T11:52:56;98705.28;;;13.78;61.94
77043;BME280;65975;53.936;27.540;2023-01-01T11:55:44;98728.09;;;14.62;59.13
77043;BME280;65975;53.936;27.540;2023-01-01T12:00:42;98698.84;;;13.84;61.44
77043;BME280;65975;53.936;27.540;2023-01-01T12:05:53;98701.59;;;14.15;60.23
77043;BME280;65975;53.936;27.540;2023-01-01T12:11:36;98729.19;;;13.74;61.42
77043;BME280;65975;53.936;27.540;2023-01-01T12:14:28;98733.13;;;12.92;64.29
77043;BME280;65975;53.936;27.540;2023-01-01T12:17:08;98731.09;;;12.40;65.53
77043;BME280;65975;53.936;27.540;2023-01-01T12:22:34;98720.16;;;11.90;67.49
77043;BME280;65975;53.936;27.540;2023-01-01T12:25:01;98727.94;;;12.12;66.96
77043;BME280;65975;53.936;27.540;2023-01-01T12:41:05;98726.13;;;11.52;69.20
77043;BME280;65975;53.936;27.540;2023-01-01T12:43:43;98739.28;;;11.50;69.23
77043;BME280;65975;53.936;27.540;2023-01-01T12:52:45;98711.00;;;10.93;70.40
77043;BME280;65975;53.936;27.540;2023-01-01T12:58:46;98733.97;;;10.87;71.79
77043;BME280;65975;53.936;27.540;2023-01-01T13:01:18;98745.69;;;11.00;70.97
77043;BME280;65975;53.936;27.540;2023-01-01T13:03:54;98743.13;;;10.98;71.15
77043;BME280;65975;53.936;27.540;2023-01-01T13:06:44;98754.94;;;11.08;70.65
77043;BME280;65975;53.936;27.540;2023-01-01T13:09:16;98762.25;;;11.00;71.49
77043;BME280;65975;53.936;27.540;2023-01-01T13:11:46;98769.31;;;10.98;71.18
77043;BME280;65975;53.936;27.540;2023-01-01T13:14:14;98767.66;;;10.96;70.98
77043;BME280;65975;53.936;27.540;2023-01-01T13:16:41;98771.38;;;10.90;71.04
77043;BME280;65975;53.936;27.540;2023-01-01T13:21:55;98782.38;;;11.00;70.90
77043;BME280;65975;53.936;27.540;2023-01-01T13:24:23;98782.75;;;11.12;70.74
77043;BME280;65975;53.936;27.540;2023-01-01T13:26:50;98743.69;;;10.83;71.16
77043;BME280;65975;53.936;27.540;2023-01-01T13:45:29;98780.94;;;11.14;70.26
77043;BME280;65975;53.936;27.540;2023-01-01T13:56:54;98811.75;;;10.85;71.47
77043;BME280;65975;53.936;27.540;2023-01-01T14:05:04;98812.81;;;11.02;70.66
77043;BME280;65975;53.936;27.540;2023-01-01T14:07:41;98832.94;;;11.02;70.39
77043;BME280;65975;53.936;27.540;2023-01-01T14:12:43;98814.88;;;10.94;70.89
77043;BME280;65975;53.936;27.540;2023-01-01T14:15:30;98827.78;;;11.22;69.69
77043;BME280;65975;53.936;27.540;2023-01-01T14:17:58;98787.34;;;10.82;70.18
77043;BME280;65975;53.936;27.540;2023-01-01T14:20:33;98707.97;;;10.35;70.37
77043;BME280;65975;53.936;27.540;2023-01-01T14:23:06;98807.69;;;10.99;70.02
77043;BME280;65975;53.936;27.540;2023-01-01T14:25:33;98822.22;;;11.08;69.92
77043;BME280;65975;53.936;27.540;2023-01-01T14:27:59;98796.81;;;11.10;69.82
77043;BME280;65975;53.936;27.540;2023-01-01T14:30:25;98815.63;;;11.21;69.73
77043;BME280;65975;53.936;27.540;2023-01-01T14:32:57;98830.00;;;11.09;69.73
77043;BME280;65975;53.936;27.540;2023-01-01T14:35:24;98823.81;;;11.12;69.78
77043;BME280;65975;53.936;27.540;2023-01-01T14:37:50;98825.75;;;11.07;70.12
77043;BME280;65975;53.936;27.540;2023-01-01T14:40:24;98828.19;;;11.11;69.70
77043;BME280;65975;53.936;27.540;2023-01-01T14:43:05;98829.28;;;11.06;69.97
77043;BME280;65975;53.936;27.540;2023-01-01T14:45:41;98815.16;;;10.87;70.02
77043;BME280;65975;53.936;27.540;2023-01-01T14:48:16;98838.69;;;11.11;69.99
77043;BME280;65975;53.936;27.540;2023-01-01T14:50:46;98845.00;;;11.06;69.97
77043;BME280;65975;53.936;27.540;2023-01-01T14:53:15;98841.09;;;10.94;70.46
77043;BME280;65975;53.936;27.540;2023-01-01T14:55:46;98840.38;;;10.89;70.47
77043;BME280;65975;53.936;27.540;2023-01-01T14:58:20;98841.94;;;10.70;71.19
77043;BME280;65975;53.936;27.540;2023-01-01T15:00:47;98831.56;;;10.68;71.05
77043;BME280;65975;53.936;27.540;2023-01-01T15:03:18;98816.00;;;10.39;71.58
77043;BME280;65975;53.936;27.540;2023-01-01T15:05:56;98835.34;;;10.60;71.53